sensor_id;sensor_type;location;lat;lon;timestamp;temperature;humidity
21906;DHT22;11117;48.644;9.006;2023-01-04T00:01:12;3.00;99.90
21906;DHT22;11117;48.644;9.006;2023-01-04T00:03:38;2.90;99.90
21906;DHT22;11117;48.644;9.006;2023-01-04T00:06:05;2.90;99.90
21906;DHT22;11117;48.644;9.006;2023-01-04T00:08:31;2.90;99.90
21906;DHT22;11117;48.644;9.006;2023-01-04T00:11:07;3.00;99.90
21906;DHT22;11117;48.644;9.006;2023-01-04T00:13:33;3.10;99.90
21906;DHT22;11117;48.644;9.006;2023-01-04T00:16:03;3.10;99.90
21906;DHT22;11117;48.644;9.006;2023-01-04T00:18:30;3.10;99.90
21906;DHT22;11117;48.644;9.006;2023-01-04T00:23:33;3.20;99.90
21906;DHT22;11117;48.644;9.006;2023-01-04T00:25:59;3.20;99.90
21906;DHT22;11117;48.644;9.006;2023-01-04T00:28:25;3.20;99.90
21906;DHT22;11117;48.644;9.006;2023-01-04T00:30:50;3.10;99.90
21906;DHT22;11117;48.644;9.006;2023-01-04T00:33:16;3.10;99.90
21906;DHT22;11117;48.644;9.006;2023-01-04T00:35:44;3.10;99.90
21906;DHT22;11117;48.644;9.006;2023-01-04T00:38:10;3.10;99.90
21906;DHT22;11117;48.644;9.006;2023-01-04T00:40:35;3.00;99.90
21906;DHT22;11117;48.644;9.006;2023-01-04T00:43:01;3.10;99.90
21906;DHT22;11117;48.644;9.006;2023-01-04T00:45:26;3.00;99.90
21906;DHT22;11117;48.644;9.006;2023-01-04T00:47:52;3.00;99.90
21906;DHT22;11117;48.644;9.006;2023-01-04T00:50:20;3.00;99.90
21906;DHT22;11117;48.644;9.006;2023-01-04T00:52:49;3.00;99.90
21906;DHT22;11117;48.644;9.006;2023-01-04T00:55:14;3.10;99.90
21906;DHT22;11117;48.644;9.006;2023-01-04T00:57:40;3.10;99.90
21906;DHT22;11117;48.644;9.006;2023-01-04T01:00:06;3.20;99.90
21906;DHT22;11117;48.644;9.006;2023-01-04T01:02:32;3.30;99.90
21906;DHT22;11117;48.644;9.006;2023-01-04T01:04:57;3.20;99.90
21906;DHT22;11117;48.644;9.006;2023-01-04T01:07:25;3.30;99.90
21906;DHT22;11117;48.644;9.006;2023-01-04T01:09:57;3.30;99.90
21906;DHT22;11117;48.644;9.006;2023-01-04T01:12:23;3.30;99.90
21906;DHT22;11117;48.644;9.006;2023-01-04T01:14:48;3.30;99.90
21906;DHT22;11117;48.644;9.006;2023-01-04T01:17:14;3.20;99.90
21906;DHT22;11117;48.644;9.006;2023-01-04T01:19:39;3.30;99.90
21906;DHT22;11117;48.644;9.006;2023-01-04T01:22:05;3.20;99.90
21906;DHT22;11117;48.644;9.006;2023-01-04T01:24:33;3.20;99.90
21906;DHT22;11117;48.644;9.006;2023-01-04T01:26:59;3.10;99.90
21906;DHT22;11117;48.644;9.006;2023-01-04T01:29:24;3.10;99.90
21906;DHT22;11117;48.644;9.006;2023-01-04T01:31:50;3.10;99.90
21906;DHT22;11117;48.644;9.006;2023-01-04T01:34:16;3.00;99.90
21906;DHT22;11117;48.644;9.006;2023-01-04T01:36:45;3.00;99.90
21906;DHT22;11117;48.644;9.006;2023-01-04T01:39:10;3.00;99.90
21906;DHT22;11117;48.644;9.006;2023-01-04T01:41:36;3.00;99.90
21906;DHT22;11117;48.644;9.006;2023-01-04T01:47:11;3.00;99.90
21906;DHT22;11117;48.644;9.006;2023-01-04T01:49:38;2.90;99.90
21906;DHT22;11117;48.644;9.006;2023-01-04T01:52:10;2.90;99.90
21906;DHT22;11117;48.644;9.006;2023-01-04T01:54:43;2.80;99.90
21906;DHT22;11117;48.644;9.006;2023-01-04T01:57:14;2.70;99.90
21906;DHT22;11117;48.644;9.006;2023-01-04T01:59:43;2.70;99.90
21906;DHT22;11117;48.644;9.006;2023-01-04T02:02:10;2.60;99.90
21906;DHT22;11117;48.644;9.006;2023-01-04T02:04:40;2.50;99.90
21906;DHT22;11117;48.644;9.006;2023-01-04T02:07:07;2.50;99.90
21906;DHT22;11117;48.644;9.006;2023-01-04T02:09:34;2.50;99.90
21906;DHT22;11117;48.644;9.006;2023-01-04T02:12:00;2.30;99.90
21906;DHT22;11117;48.644;9.006;2023-01-04T02:14:26;2.30;99.90
21906;DHT22;11117;48.644;9.006;2023-01-04T02:17:06;2.30;99.90
21906;DHT22;11117;48.644;9.006;2023-01-04T02:20:07;2.30;99.90
21906;DHT22;11117;48.644;9.006;2023-01-04T02:27:56;2.40;99.90
21906;DHT22;11117;48.644;9.006;2023-01-04T02:36:12;2.50;99.90
21906;DHT22;11117;48.644;9.006;2023-01-04T02:39:05;2.50;99.90
21906;DHT22;11117;48.644;9.006;2023-01-04T02:41:47;2.50;99.90
21906;DHT22;11117;48.644;9.006;2023-01-04T02:44:23;2.50;99.90
21906;DHT22;11117;48.644;9.006;2023-01-04T02:46:54;2.50;99.90
21906;DHT22;11117;48.644;9.006;2023-01-04T02:49:21;2.50;99.90
21906;DHT22;11117;48.644;9.006;2023-01-04T02:51:47;2.50;99.90
21906;DHT22;11117;48.644;9.006;2023-01-04T02:54:19;2.50;99.90
21906;DHT22;11117;48.644;9.006;2023-01-04T03:10:33;2.30;99.90
21906;DHT22;11117;48.644;9.006;2023-01-04T03:13:16;2.20;99.90
21906;DHT22;11117;48.644;9.006;2023-01-04T03:15:48;2.30;99.90
21906;DHT22;11117;48.644;9.006;2023-01-04T03:18:21;2.30;99.90
21906;DHT22;11117;48.644;9.006;2023-01-04T03:20:49;2.30;99.90
21906;DHT22;11117;48.644;9.006;2023-01-04T03:23:18;2.40;99.90
21906;DHT22;11117;48.644;9.006;2023-01-04T03:25:58;2.40;99.90
21906;DHT22;11117;48.644;9.006;2023-01-04T03:28:31;2.40;99.90
21906;DHT22;11117;48.644;9.006;2023-01-04T03:31:15;2.30;99.90
21906;DHT22;11117;48.644;9.006;2023-01-04T03:33:43;2.20;99.90
21906;DHT22;11117;48.644;9.006;2023-01-04T03:36:31;2.20;99.90
21906;DHT22;11117;48.644;9.006;2023-01-04T03:39:22;2.10;99.90
21906;DHT22;11117;48.644;9.006;2023-01-04T03:45:15;2.20;99.90
21906;DHT22;11117;48.644;9.006;2023-01-04T03:47:50;2.20;99.90
21906;DHT22;11117;48.644;9.006;2023-01-04T03:50:22;2.20;99.90
21906;DHT22;11117;48.644;9.006;2023-01-04T03:52:50;2.20;99.90
21906;DHT22;11117;48.644;9.006;2023-01-04T03:55:19;2.30;99.90
21906;DHT22;11117;48.644;9.006;2023-01-04T03:57:46;2.30;99.90
21906;DHT22;11117;48.644;9.006;2023-01-04T04:00:14;2.30;99.90
21906;DHT22;11117;48.644;9.006;2023-01-04T04:02:41;2.40;99.90
21906;DHT22;11117;48.644;9.006;2023-01-04T04:05:09;2.50;99.90
21906;DHT22;11117;48.644;9.006;2023-01-04T04:07:40;2.50;99.90
21906;DHT22;11117;48.644;9.006;2023-01-04T04:10:06;2.50;99.90
21906;DHT22;11117;48.644;9.006;2023-01-04T04:12:34;2.70;99.90
21906;DHT22;11117;48.644;9.006;2023-01-04T04:15:03;2.70;99.90
21906;DHT22;11117;48.644;9.006;2023-01-04T04:17:28;2.70;99.90
21906;DHT22;11117;48.644;9.006;2023-01-04T04:19:56;2.80;99.90
21906;DHT22;11117;48.644;9.006;2023-01-04T04:22:25;2.80;99.90
21906;DHT22;11117;48.644;9.006;2023-01-04T04:24:53;2.90;99.90
21906;DHT22;11117;48.644;9.006;2023-01-04T04:27:19;2.90;99.90
21906;DHT22;11117;48.644;9.006;2023-01-04T04:29:44;3.00;99.90
21906;DHT22;11117;48.644;9.006;2023-01-04T04:32:10;3.00;99.90
21906;DHT22;11117;48.644;9.006;2023-01-04T04:34:35;3.00;99.90
21906;DHT22;11117;48.644;9.006;2023-01-04T04:37:04;3.10;99.90
21906;DHT22;11117;48.644;9.006;2023-01-04T04:39:37;3.10;99.90
21906;DHT22;11117;48.644;9.006;2023-01-04T04:42:08;3.20;99.90
21906;DHT22;11117;48.644;9.006;2023-01-04T04:44:35;3.20;99.90
21906;DHT22;11117;48.644;9.006;2023-01-04T04:47:04;3.30;99.90
21906;DHT22;11117;48.644;9.006;2023-01-04T04:49:33;3.30;99.90
21906;DHT22;11117;48.644;9.006;2023-01-04T04:51:58;3.20;99.90
21906;DHT22;11117;48.644;9.006;2023-01-04T04:54:24;3.40;99.90
21906;DHT22;11117;48.644;9.006;2023-01-04T04:56:49;3.50;99.90
21906;DHT22;11117;48.644;9.006;2023-01-04T04:59:15;3.60;99.90
21906;DHT22;11117;48.644;9.006;2023-01-04T05:01:41;3.70;99.90
21906;DHT22;11117;48.644;9.006;2023-01-04T05:04:07;3.80;99.90
21906;DHT22;11117;48.644;9.006;2023-01-04T05:06:32;3.90;99.90
21906;DHT22;11117;48.644;9.006;2023-01-04T05:08:58;4.00;99.90
21906;DHT22;11117;48.644;9.006;2023-01-04T05:11:24;4.20;99.90
21906;DHT22;11117;48.644;9.006;2023-01-04T05:13:49;4.30;99.90
21906;DHT22;11117;48.644;9.006;2023-01-04T05:16:15;4.30;99.90
21906;DHT22;11117;48.644;9.006;2023-01-04T05:18:40;4.40;99.90
21906;DHT22;11117;48.644;9.006;2023-01-04T05:21:06;4.50;99.90
21906;DHT22;11117;48.644;9.006;2023-01-04T05:23:31;4.60;99.90
21906;DHT22;11117;48.644;9.006;2023-01-04T05:26:00;4.60;99.90
21906;DHT22;11117;48.644;9.006;2023-01-04T05:28:26;4.70;99.90
21906;DHT22;11117;48.644;9.006;2023-01-04T05:30:52;4.80;99.90
21906;DHT22;11117;48.644;9.006;2023-01-04T05:33:29;4.90;99.90
21906;DHT22;11117;48.644;9.006;2023-01-04T05:35:57;4.90;99.90
21906;DHT22;11117;48.644;9.006;2023-01-04T05:38:23;5.00;99.90
21906;DHT22;11117;48.644;9.006;2023-01-04T05:40:49;5.10;99.90
21906;DHT22;11117;48.644;9.006;2023-01-04T05:43:15;5.10;99.90
21906;DHT22;11117;48.644;9.006;2023-01-04T05:45:49;5.10;99.90
21906;DHT22;11117;48.644;9.006;2023-01-04T05:48:16;5.10;99.90
21906;DHT22;11117;48.644;9.006;2023-01-04T05:50:41;5.10;99.90
21906;DHT22;11117;48.644;9.006;2023-01-04T05:53:07;5.00;99.90
21906;DHT22;11117;48.644;9.006;2023-01-04T05:55:33;5.10;99.90
21906;DHT22;11117;48.644;9.006;2023-01-04T05:57:58;5.10;99.90
21906;DHT22;11117;48.644;9.006;2023-01-04T06:00:24;5.10;99.90
21906;DHT22;11117;48.644;9.006;2023-01-04T06:02:50;5.20;99.90
21906;DHT22;11117;48.644;9.006;2023-01-04T06:05:15;5.20;99.90
21906;DHT22;11117;48.644;9.006;2023-01-04T06:07:41;5.30;99.90
21906;DHT22;11117;48.644;9.006;2023-01-04T06:10:08;5.30;99.90
21906;DHT22;11117;48.644;9.006;2023-01-04T06:12:34;5.30;99.90
21906;DHT22;11117;48.644;9.006;2023-01-04T06:15:00;5.40;99.90
21906;DHT22;11117;48.644;9.006;2023-01-04T06:17:25;5.40;99.90
21906;DHT22;11117;48.644;9.006;2023-01-04T06:19:51;5.50;99.90
21906;DHT22;11117;48.644;9.006;2023-01-04T06:22:16;5.40;99.90
21906;DHT22;11117;48.644;9.006;2023-01-04T06:24:42;5.50;99.90
21906;DHT22;11117;48.644;9.006;2023-01-04T06:27:07;5.50;99.90
21906;DHT22;11117;48.644;9.006;2023-01-04T06:29:33;5.60;99.90
21906;DHT22;11117;48.644;9.006;2023-01-04T06:31:58;5.60;99.90
21906;DHT22;11117;48.644;9.006;2023-01-04T06:34:24;5.60;99.90
21906;DHT22;11117;48.644;9.006;2023-01-04T06:36:49;5.60;99.90
21906;DHT22;11117;48.644;9.006;2023-01-04T06:39:15;5.60;99.90
21906;DHT22;11117;48.644;9.006;2023-01-04T06:41:40;5.60;99.90
21906;DHT22;11117;48.644;9.006;2023-01-04T06:44:06;5.50;99.90
21906;DHT22;11117;48.644;9.006;2023-01-04T06:46:31;5.60;99.90
21906;DHT22;11117;48.644;9.006;2023-01-04T06:48:57;5.60;99.90
21906;DHT22;11117;48.644;9.006;2023-01-04T06:51:23;5.60;99.90
21906;DHT22;11117;48.644;9.006;2023-01-04T06:53:49;5.60;99.90
21906;DHT22;11117;48.644;9.006;2023-01-04T06:56:15;5.60;99.90
21906;DHT22;11117;48.644;9.006;2023-01-04T06:58:40;5.60;99.90
21906;DHT22;11117;48.644;9.006;2023-01-04T07:01:06;5.70;99.90
21906;DHT22;11117;48.644;9.006;2023-01-04T07:03:32;5.70;99.90
21906;DHT22;11117;48.644;9.006;2023-01-04T07:05:58;5.70;99.90
21906;DHT22;11117;48.644;9.006;2023-01-04T07:08:24;5.60;99.90
21906;DHT22;11117;48.644;9.006;2023-01-04T07:10:49;5.50;99.90
21906;DHT22;11117;48.644;9.006;2023-01-04T07:13:15;5.70;99.90
21906;DHT22;11117;48.644;9.006;2023-01-04T07:15:41;5.60;99.90
21906;DHT22;11117;48.644;9.006;2023-01-04T07:18:07;5.70;99.90
21906;DHT22;11117;48.644;9.006;2023-01-04T07:20:33;5.80;99.90
21906;DHT22;11117;48.644;9.006;2023-01-04T07:22:59;5.80;99.90
21906;DHT22;11117;48.644;9.006;2023-01-04T07:25:24;5.70;99.90
21906;DHT22;11117;48.644;9.006;2023-01-04T07:27:53;5.70;99.90
21906;DHT22;11117;48.644;9.006;2023-01-04T07:30:23;5.70;99.90
21906;DHT22;11117;48.644;9.006;2023-01-04T07:32:50;5.70;99.90
21906;DHT22;11117;48.644;9.006;2023-01-04T07:35:16;5.80;99.90
21906;DHT22;11117;48.644;9.006;2023-01-04T07:37:42;5.80;99.90
21906;DHT22;11117;48.644;9.006;2023-01-04T07:40:09;5.80;99.90
21906;DHT22;11117;48.644;9.006;2023-01-04T07:42:35;5.80;99.90
21906;DHT22;11117;48.644;9.006;2023-01-04T07:45:00;5.90;99.90
21906;DHT22;11117;48.644;9.006;2023-01-04T07:47:27;5.90;99.90
21906;DHT22;11117;48.644;9.006;2023-01-04T07:49:52;5.90;99.90
21906;DHT22;11117;48.644;9.006;2023-01-04T07:52:18;6.00;99.90
21906;DHT22;11117;48.644;9.006;2023-01-04T07:54:43;5.90;99.90
21906;DHT22;11117;48.644;9.006;2023-01-04T07:57:09;6.00;99.90
21906;DHT22;11117;48.644;9.006;2023-01-04T07:59:34;6.00;99.90
21906;DHT22;11117;48.644;9.006;2023-01-04T08:02:00;6.10;99.90
21906;DHT22;11117;48.644;9.006;2023-01-04T08:04:25;6.10;99.90
21906;DHT22;11117;48.644;9.006;2023-01-04T08:06:51;6.10;99.90
21906;DHT22;11117;48.644;9.006;2023-01-04T08:09:17;6.10;99.90
21906;DHT22;11117;48.644;9.006;2023-01-04T08:11:43;6.10;99.90
21906;DHT22;11117;48.644;9.006;2023-01-04T08:14:10;6.10;99.90
21906;DHT22;11117;48.644;9.006;2023-01-04T08:16:38;6.00;99.90
21906;DHT22;11117;48.644;9.006;2023-01-04T08:19:07;6.10;99.90
21906;DHT22;11117;48.644;9.006;2023-01-04T08:21:36;6.10;99.90
21906;DHT22;11117;48.644;9.006;2023-01-04T08:24:02;6.10;99.90
21906;DHT22;11117;48.644;9.006;2023-01-04T08:26:28;6.10;99.90
21906;DHT22;11117;48.644;9.006;2023-01-04T08:28:54;6.20;99.90
21906;DHT22;11117;48.644;9.006;2023-01-04T08:31:25;6.20;99.90
21906;DHT22;11117;48.644;9.006;2023-01-04T08:33:52;6.20;99.90
21906;DHT22;11117;48.644;9.006;2023-01-04T08:36:22;6.30;99.90
21906;DHT22;11117;48.644;9.006;2023-01-04T08:38:51;6.30;99.90
21906;DHT22;11117;48.644;9.006;2023-01-04T08:41:17;6.30;99.90
21906;DHT22;11117;48.644;9.006;2023-01-04T08:43:43;6.40;99.90
21906;DHT22;11117;48.644;9.006;2023-01-04T08:46:10;6.40;99.90
21906;DHT22;11117;48.644;9.006;2023-01-04T08:48:37;6.40;99.90
21906;DHT22;11117;48.644;9.006;2023-01-04T08:51:09;6.40;99.90
21906;DHT22;11117;48.644;9.006;2023-01-04T08:53:35;6.40;99.90
21906;DHT22;11117;48.644;9.006;2023-01-04T08:56:01;6.50;99.90
21906;DHT22;11117;48.644;9.006;2023-01-04T08:58:27;6.50;99.90
21906;DHT22;11117;48.644;9.006;2023-01-04T09:03:27;6.50;99.90
21906;DHT22;11117;48.644;9.006;2023-01-04T09:05:53;6.50;99.90
21906;DHT22;11117;48.644;9.006;2023-01-04T09:08:19;6.60;99.90
21906;DHT22;11117;48.644;9.006;2023-01-04T09:10:45;6.70;99.90
21906;DHT22;11117;48.644;9.006;2023-01-04T09:13:10;6.60;99.90
21906;DHT22;11117;48.644;9.006;2023-01-04T09:15:36;6.70;99.90
21906;DHT22;11117;48.644;9.006;2023-01-04T09:18:01;6.70;99.90
21906;DHT22;11117;48.644;9.006;2023-01-04T09:20:27;6.60;99.90
21906;DHT22;11117;48.644;9.006;2023-01-04T09:22:53;6.70;99.90
21906;DHT22;11117;48.644;9.006;2023-01-04T09:25:18;6.80;99.90
21906;DHT22;11117;48.644;9.006;2023-01-04T09:27:44;7.00;99.90
21906;DHT22;11117;48.644;9.006;2023-01-04T09:30:10;6.90;99.90
21906;DHT22;11117;48.644;9.006;2023-01-04T09:32:35;7.00;99.90
21906;DHT22;11117;48.644;9.006;2023-01-04T09:35:01;7.10;99.90
21906;DHT22;11117;48.644;9.006;2023-01-04T09:37:26;7.00;99.90
21906;DHT22;11117;48.644;9.006;2023-01-04T09:39:52;7.10;99.90
21906;DHT22;11117;48.644;9.006;2023-01-04T09:42:37;7.20;99.90
21906;DHT22;11117;48.644;9.006;2023-01-04T09:45:24;7.20;99.90
21906;DHT22;11117;48.644;9.006;2023-01-04T09:48:05;7.20;99.90
21906;DHT22;11117;48.644;9.006;2023-01-04T09:50:46;7.10;99.90
21906;DHT22;11117;48.644;9.006;2023-01-04T09:53:23;7.20;99.90
21906;DHT22;11117;48.644;9.006;2023-01-04T09:55:53;7.30;99.90
21906;DHT22;11117;48.644;9.006;2023-01-04T09:58:32;7.30;99.90
21906;DHT22;11117;48.644;9.006;2023-01-04T10:01:00;7.40;99.90
21906;DHT22;11117;48.644;9.006;2023-01-04T10:03:38;7.50;99.90
21906;DHT22;11117;48.644;9.006;2023-01-04T10:06:06;7.40;99.90
21906;DHT22;11117;48.644;9.006;2023-01-04T10:08:34;7.40;99.90
21906;DHT22;11117;48.644;9.006;2023-01-04T10:14:03;7.40;99.90
21906;DHT22;11117;48.644;9.006;2023-01-04T10:21:58;7.40;99.90
21906;DHT22;11117;48.644;9.006;2023-01-04T10:27:29;7.50;99.90
21906;DHT22;11117;48.644;9.006;2023-01-04T10:32:42;7.70;99.90
21906;DHT22;11117;48.644;9.006;2023-01-04T10:35:23;7.70;99.90
21906;DHT22;11117;48.644;9.006;2023-01-04T10:38:01;7.80;99.90
21906;DHT22;11117;48.644;9.006;2023-01-04T10:40:32;7.90;99.90
21906;DHT22;11117;48.644;9.006;2023-01-04T10:43:05;7.90;99.90
21906;DHT22;11117;48.644;9.006;2023-01-04T10:48:48;8.10;99.90
21906;DHT22;11117;48.644;9.006;2023-01-04T10:51:20;8.20;99.90
21906;DHT22;11117;48.644;9.006;2023-01-04T10:53:55;8.20;99.90
21906;DHT22;11117;48.644;9.006;2023-01-04T10:56:29;8.40;99.90
21906;DHT22;11117;48.644;9.006;2023-01-04T11:01:41;8.40;99.90
21906;DHT22;11117;48.644;9.006;2023-01-04T11:04:34;8.40;99.90
21906;DHT22;11117;48.644;9.006;2023-01-04T11:07:18;8.40;99.90
21906;DHT22;11117;48.644;9.006;2023-01-04T11:09:51;8.60;99.90
21906;DHT22;11117;48.644;9.006;2023-01-04T11:12:19;8.60;99.90
21906;DHT22;11117;48.644;9.006;2023-01-04T11:14:46;8.60;99.90
21906;DHT22;11117;48.644;9.006;2023-01-04T11:17:12;8.70;99.90
21906;DHT22;11117;48.644;9.006;2023-01-04T11:19:39;8.60;99.90
21906;DHT22;11117;48.644;9.006;2023-01-04T11:25:18;8.80;99.90
21906;DHT22;11117;48.644;9.006;2023-01-04T11:27:51;8.70;99.90
21906;DHT22;11117;48.644;9.006;2023-01-04T11:30:29;8.90;99.90
21906;DHT22;11117;48.644;9.006;2023-01-04T11:33:07;8.70;99.90
21906;DHT22;11117;48.644;9.006;2023-01-04T11:35:40;8.70;99.90
21906;DHT22;11117;48.644;9.006;2023-01-04T11:38:26;8.80;99.90
21906;DHT22;11117;48.644;9.006;2023-01-04T11:40:58;8.80;99.90
21906;DHT22;11117;48.644;9.006;2023-01-04T11:43:27;8.90;99.90
21906;DHT22;11117;48.644;9.006;2023-01-04T11:48:18;9.00;99.90
21906;DHT22;11117;48.644;9.006;2023-01-04T11:50:46;9.00;99.90
21906;DHT22;11117;48.644;9.006;2023-01-04T11:53:22;9.10;99.90
21906;DHT22;11117;48.644;9.006;2023-01-04T11:55:48;9.10;99.90
21906;DHT22;11117;48.644;9.006;2023-01-04T11:58:15;9.10;99.90
21906;DHT22;11117;48.644;9.006;2023-01-04T12:00:55;9.20;99.90
21906;DHT22;11117;48.644;9.006;2023-01-04T12:03:37;9.30;99.90
21906;DHT22;11117;48.644;9.006;2023-01-04T12:06:34;9.30;99.90
21906;DHT22;11117;48.644;9.006;2023-01-04T12:09:01;9.40;99.90
21906;DHT22;11117;48.644;9.006;2023-01-04T12:11:39;9.50;99.90
21906;DHT22;11117;48.644;9.006;2023-01-04T12:14:23;9.50;99.90
21906;DHT22;11117;48.644;9.006;2023-01-04T12:19:18;9.50;99.90
21906;DHT22;11117;48.644;9.006;2023-01-04T12:21:51;9.50;99.90
21906;DHT22;11117;48.644;9.006;2023-01-04T12:24:26;9.50;99.90
21906;DHT22;11117;48.644;9.006;2023-01-04T12:26:53;9.60;99.90
21906;DHT22;11117;48.644;9.006;2023-01-04T12:37:03;9.20;99.90
21906;DHT22;11117;48.644;9.006;2023-01-04T12:39:45;9.20;99.90
21906;DHT22;11117;48.644;9.006;2023-01-04T12:42:16;9.20;99.90
21906;DHT22;11117;48.644;9.006;2023-01-04T12:49:51;8.90;99.90
21906;DHT22;11117;48.644;9.006;2023-01-04T12:54:57;8.90;99.90
21906;DHT22;11117;48.644;9.006;2023-01-04T12:57:25;8.90;99.90
21906;DHT22;11117;48.644;9.006;2023-01-04T13:00:00;8.90;99.90
21906;DHT22;11117;48.644;9.006;2023-01-04T13:02:43;8.90;99.90
21906;DHT22;11117;48.644;9.006;2023-01-04T13:07:44;8.90;99.90
21906;DHT22;11117;48.644;9.006;2023-01-04T13:10:20;8.90;99.90
21906;DHT22;11117;48.644;9.006;2023-01-04T13:18:38;9.00;99.90
21906;DHT22;11117;48.644;9.006;2023-01-04T13:21:38;8.90;99.90
21906;DHT22;11117;48.644;9.006;2023-01-04T13:26:51;8.90;99.90
21906;DHT22;11117;48.644;9.006;2023-01-04T13:29:20;8.90;99.90
21906;DHT22;11117;48.644;9.006;2023-01-04T13:34:40;8.90;99.90
21906;DHT22;11117;48.644;9.006;2023-01-04T13:39:47;8.90;99.90
21906;DHT22;11117;48.644;9.006;2023-01-04T13:42:22;9.00;99.90
21906;DHT22;11117;48.644;9.006;2023-01-04T13:47:36;9.00;99.90
21906;DHT22;11117;48.644;9.006;2023-01-04T13:50:03;9.00;99.90
21906;DHT22;11117;48.644;9.006;2023-01-04T13:52:29;9.00;99.90
21906;DHT22;11117;48.644;9.006;2023-01-04T13:55:24;8.90;99.90
21906;DHT22;11117;48.644;9.006;2023-01-04T14:00:25;8.80;99.90
21906;DHT22;11117;48.644;9.006;2023-01-04T14:03:25;8.90;99.90
21906;DHT22;11117;48.644;9.006;2023-01-04T14:05:53;8.80;99.90
21906;DHT22;11117;48.644;9.006;2023-01-04T14:08:30;8.80;99.90
21906;DHT22;11117;48.644;9.006;2023-01-04T14:10:56;8.80;99.90
21906;DHT22;11117;48.644;9.006;2023-01-04T14:13:22;8.80;99.90
21906;DHT22;11117;48.644;9.006;2023-01-04T14:16:13;8.80;99.90
21906;DHT22;11117;48.644;9.006;2023-01-04T14:18:39;8.70;99.90
21906;DHT22;11117;48.644;9.006;2023-01-04T14:21:17;8.80;99.90
21906;DHT22;11117;48.644;9.006;2023-01-04T14:23:42;8.80;99.90
21906;DHT22;11117;48.644;9.006;2023-01-04T14:26:29;8.80;99.90
21906;DHT22;11117;48.644;9.006;2023-01-04T14:28:55;8.80;99.90
21906;DHT22;11117;48.644;9.006;2023-01-04T14:31:25;8.70;99.90
21906;DHT22;11117;48.644;9.006;2023-01-04T14:33:52;8.70;99.90
21906;DHT22;11117;48.644;9.006;2023-01-04T14:38:49;8.80;99.90
21906;DHT22;11117;48.644;9.006;2023-01-04T14:44:15;8.90;99.90
21906;DHT22;11117;48.644;9.006;2023-01-04T14:46:43;8.80;99.90
21906;DHT22;11117;48.644;9.006;2023-01-04T14:49:09;8.70;99.90
21906;DHT22;11117;48.644;9.006;2023-01-04T14:51:39;8.70;99.90
21906;DHT22;11117;48.644;9.006;2023-01-04T14:54:05;8.70;99.90
21906;DHT22;11117;48.644;9.006;2023-01-04T14:56:32;8.60;99.90
21906;DHT22;11117;48.644;9.006;2023-01-04T14:58:57;8.60;99.90
21906;DHT22;11117;48.644;9.006;2023-01-04T15:01:23;8.50;99.90
21906;DHT22;11117;48.644;9.006;2023-01-04T15:03:49;8.50;99.90
21906;DHT22;11117;48.644;9.006;2023-01-04T15:06:14;8.50;99.90
21906;DHT22;11117;48.644;9.006;2023-01-04T15:08:40;8.50;99.90
21906;DHT22;11117;48.644;9.006;2023-01-04T15:11:05;8.60;99.90
21906;DHT22;11117;48.644;9.006;2023-01-04T15:13:31;8.40;99.90
21906;DHT22;11117;48.644;9.006;2023-01-04T15:15:57;8.40;99.90
21906;DHT22;11117;48.644;9.006;2023-01-04T15:18:22;8.40;99.90
21906;DHT22;11117;48.644;9.006;2023-01-04T15:20:48;8.30;99.90
21906;DHT22;11117;48.644;9.006;2023-01-04T15:23:14;8.40;99.90
21906;DHT22;11117;48.644;9.006;2023-01-04T15:25:40;8.30;99.90
21906;DHT22;11117;48.644;9.006;2023-01-04T15:28:06;8.30;99.90
21906;DHT22;11117;48.644;9.006;2023-01-04T15:30:32;8.20;99.90
21906;DHT22;11117;48.644;9.006;2023-01-04T15:32:57;8.20;99.90
21906;DHT22;11117;48.644;9.006;2023-01-04T15:35:23;8.20;99.90
21906;DHT22;11117;48.644;9.006;2023-01-04T15:37:49;8.20;99.90
21906;DHT22;11117;48.644;9.006;2023-01-04T15:40:16;8.20;99.90
21906;DHT22;11117;48.644;9.006;2023-01-04T15:42:42;8.20;99.90
21906;DHT22;11117;48.644;9.006;2023-01-04T15:45:08;8.20;99.90
21906;DHT22;11117;48.644;9.006;2023-01-04T15:47:34;8.20;99.90
21906;DHT22;11117;48.644;9.006;2023-01-04T15:50:00;8.20;99.90
21906;DHT22;11117;48.644;9.006;2023-01-04T15:52:25;8.30;99.90
21906;DHT22;11117;48.644;9.006;2023-01-04T15:54:51;8.20;99.90
21906;DHT22;11117;48.644;9.006;2023-01-04T15:57:17;8.30;99.90
21906;DHT22;11117;48.644;9.006;2023-01-04T15:59:45;8.30;99.90
21906;DHT22;11117;48.644;9.006;2023-01-04T16:02:10;8.30;99.90
21906;DHT22;11117;48.644;9.006;2023-01-04T16:04:37;8.30;99.90
21906;DHT22;11117;48.644;9.006;2023-01-04T16:07:02;8.30;99.90
21906;DHT22;11117;48.644;9.006;2023-01-04T16:09:28;8.30;99.90
21906;DHT22;11117;48.644;9.006;2023-01-04T16:11:54;8.30;99.90
21906;DHT22;11117;48.644;9.006;2023-01-04T16:14:19;8.30;99.90
21906;DHT22;11117;48.644;9.006;2023-01-04T16:16:45;8.30;99.90
21906;DHT22;11117;48.644;9.006;2023-01-04T16:19:10;8.30;99.90
21906;DHT22;11117;48.644;9.006;2023-01-04T16:21:36;8.40;99.90
21906;DHT22;11117;48.644;9.006;2023-01-04T16:24:01;8.40;99.90
21906;DHT22;11117;48.644;9.006;2023-01-04T16:26:27;8.40;99.90
21906;DHT22;11117;48.644;9.006;2023-01-04T16:28:54;8.50;99.90
21906;DHT22;11117;48.644;9.006;2023-01-04T16:31:20;8.50;99.90
21906;DHT22;11117;48.644;9.006;2023-01-04T16:33:46;8.50;99.90
21906;DHT22;11117;48.644;9.006;2023-01-04T16:36:12;8.60;99.90
21906;DHT22;11117;48.644;9.006;2023-01-04T16:38:40;8.60;99.90
21906;DHT22;11117;48.644;9.006;2023-01-04T16:41:07;8.60;99.90
21906;DHT22;11117;48.644;9.006;2023-01-04T16:43:42;8.60;99.90
21906;DHT22;11117;48.644;9.006;2023-01-04T16:48:40;8.60;99.90
21906;DHT22;11117;48.644;9.006;2023-01-04T16:51:05;8.60;99.90
21906;DHT22;11117;48.644;9.006;2023-01-04T16:53:31;8.60;99.90
21906;DHT22;11117;48.644;9.006;2023-01-04T16:55:57;8.70;99.90
21906;DHT22;11117;48.644;9.006;2023-01-04T16:58:28;8.70;99.90
21906;DHT22;11117;48.644;9.006;2023-01-04T17:00:54;8.70;99.90
21906;DHT22;11117;48.644;9.006;2023-01-04T17:03:19;8.70;99.90
21906;DHT22;11117;48.644;9.006;2023-01-04T17:05:45;8.80;99.90
21906;DHT22;11117;48.644;9.006;2023-01-04T17:08:10;8.80;99.90
21906;DHT22;11117;48.644;9.006;2023-01-04T17:10:36;8.80;99.90
21906;DHT22;11117;48.644;9.006;2023-01-04T17:13:02;8.80;99.90
21906;DHT22;11117;48.644;9.006;2023-01-04T17:15:27;8.90;99.90
21906;DHT22;11117;48.644;9.006;2023-01-04T17:17:53;8.80;99.90
21906;DHT22;11117;48.644;9.006;2023-01-04T17:20:18;8.80;99.90
21906;DHT22;11117;48.644;9.006;2023-01-04T17:22:44;8.90;99.90
21906;DHT22;11117;48.644;9.006;2023-01-04T17:25:09;8.90;99.90
21906;DHT22;11117;48.644;9.006;2023-01-04T17:27:35;8.80;99.90
21906;DHT22;11117;48.644;9.006;2023-01-04T17:30:01;8.90;99.90
21906;DHT22;11117;48.644;9.006;2023-01-04T17:32:26;8.90;99.90
21906;DHT22;11117;48.644;9.006;2023-01-04T17:34:52;9.00;99.90
21906;DHT22;11117;48.644;9.006;2023-01-04T17:37:17;8.90;99.90
21906;DHT22;11117;48.644;9.006;2023-01-04T17:39:43;9.00;99.90
21906;DHT22;11117;48.644;9.006;2023-01-04T17:42:08;8.90;99.90
21906;DHT22;11117;48.644;9.006;2023-01-04T17:44:34;8.90;99.90